createdAt,value
2023-02-14T00:01:39.485Z,2.76
2023-02-14T00:04:06.051Z,2.67
2023-02-14T00:06:34.015Z,2.63
2023-02-14T00:09:01.972Z,2.56
2023-02-14T00:11:29.161Z,2.52
2023-02-14T00:13:57.113Z,2.50
2023-02-14T00:16:23.677Z,2.45
2023-02-14T00:18:50.415Z,2.31
2023-02-14T00:21:17.945Z,2.24
2023-02-14T00:23:44.403Z,2.38
2023-02-14T00:26:14.616Z,1.97
2023-02-14T00:28:41.103Z,2.00
2023-02-14T00:31:07.717Z,2.30
2023-02-14T00:33:34.230Z,2.20
2023-02-14T00:36:04.053Z,1.81
2023-02-14T00:38:30.951Z,2.28
2023-02-14T00:40:57.878Z,2.26
2023-02-14T00:43:24.591Z,2.16
2023-02-14T00:45:51.391Z,2.42
2023-02-14T00:48:17.838Z,2.41
2023-02-14T00:50:44.324Z,2.11
2023-02-14T00:53:10.767Z,2.44
2023-02-14T00:55:37.270Z,2.17
2023-02-14T00:58:03.834Z,2.34
2023-02-14T01:00:30.328Z,2.16
2023-02-14T01:02:57.217Z,1.90
2023-02-14T01:05:23.707Z,1.91
2023-02-14T01:07:50.413Z,1.78
2023-02-14T01:10:17.040Z,1.79
2023-02-14T01:12:43.644Z,1.83
2023-02-14T01:15:10.107Z,1.64
2023-02-14T01:17:36.575Z,1.81
2023-02-14T01:20:03.261Z,1.34
2023-02-14T01:22:29.929Z,1.76
2023-02-14T01:24:56.492Z,1.69
2023-02-14T01:27:22.945Z,1.83
2023-02-14T01:29:49.560Z,1.69
2023-02-14T01:32:16.226Z,1.82
2023-02-14T01:34:42.772Z,1.81
2023-02-14T01:37:09.231Z,1.23
2023-02-14T01:39:35.755Z,1.62
2023-02-14T01:42:02.243Z,1.31
2023-02-14T01:44:28.698Z,1.69
2023-02-14T01:46:56.372Z,1.59
2023-02-14T01:49:34.613Z,1.22
2023-02-14T01:52:06.208Z,1.55
2023-02-14T01:54:35.952Z,1.43
2023-02-14T01:57:08.705Z,1.37
2023-02-14T01:59:39.830Z,1.54
2023-02-14T02:02:07.564Z,1.55
2023-02-14T02:04:42.432Z,1.41
2023-02-14T02:07:12.361Z,1.40
2023-02-14T02:09:46.996Z,1.44
2023-02-14T02:12:13.833Z,1.17
2023-02-14T02:14:41.529Z,1.43
2023-02-14T02:17:20.463Z,1.42
2023-02-14T02:20:00.126Z,1.50
2023-02-14T02:22:35.601Z,1.61
2023-02-14T02:25:33.956Z,1.26
2023-02-14T02:28:03.234Z,1.48
2023-02-14T02:30:48.342Z,1.62
2023-02-14T02:33:48.965Z,1.49
2023-02-14T02:36:33.171Z,1.00
2023-02-14T02:39:21.598Z,1.26
2023-02-14T02:41:48.207Z,1.26
2023-02-14T02:44:21.508Z,1.34
2023-02-14T02:47:06.672Z,1.14
2023-02-14T02:49:57.910Z,0.73
2023-02-14T02:52:44.649Z,1.18
2023-02-14T02:55:25.679Z,1.08
2023-02-14T02:57:55.177Z,1.09
2023-02-14T03:00:23.657Z,1.06
2023-02-14T03:02:55.595Z,1.12
2023-02-14T03:05:23.215Z,1.22
2023-02-14T03:07:50.181Z,1.03
2023-02-14T03:10:23.649Z,1.06
2023-02-14T03:13:05.223Z,0.86
2023-02-14T03:15:47.826Z,0.91
2023-02-14T03:18:48.543Z,1.00
2023-02-14T03:21:26.663Z,0.93
2023-02-14T03:24:17.015Z,1.03
2023-02-14T03:26:52.026Z,0.91
2023-02-14T03:29:37.280Z,0.97
2023-02-14T03:32:13.738Z,0.97
2023-02-14T03:34:52.595Z,0.88
2023-02-14T03:37:31.487Z,0.85
2023-02-14T03:40:09.064Z,0.83
2023-02-14T03:42:43.202Z,0.36
2023-02-14T03:45:16.777Z,0.87
2023-02-14T03:47:44.890Z,0.92
2023-02-14T03:50:17.332Z,0.82
2023-02-14T03:52:46.901Z,0.87
2023-02-14T03:55:20.150Z,0.78
2023-02-14T03:58:01.236Z,0.77
2023-02-14T04:00:32.535Z,0.83
2023-02-14T04:03:06.195Z,0.43
2023-02-14T04:05:33.293Z,0.57
2023-02-14T04:07:59.908Z,0.90
2023-02-14T04:10:27.195Z,0.84
2023-02-14T04:12:54.313Z,0.90
2023-02-14T04:15:20.989Z,0.93
2023-02-14T04:17:47.753Z,0.89
2023-02-14T04:20:14.346Z,0.91
2023-02-14T04:22:40.960Z,0.85
2023-02-14T04:25:07.627Z,0.82
2023-02-14T04:27:34.154Z,0.88
2023-02-14T04:30:00.864Z,0.84
2023-02-14T04:32:27.559Z,0.87
2023-02-14T04:34:54.129Z,0.76
2023-02-14T04:37:20.728Z,0.93
2023-02-14T04:39:47.586Z,0.87
2023-02-14T04:42:15.011Z,0.88
2023-02-14T04:44:41.852Z,0.85
2023-02-14T04:47:09.021Z,1.09
2023-02-14T04:49:36.126Z,1.09
2023-02-14T04:52:03.187Z,1.15
2023-02-14T04:54:29.925Z,0.78
2023-02-14T04:56:56.711Z,0.97
2023-02-14T04:59:24.793Z,1.11
2023-02-14T05:01:52.244Z,0.75
2023-02-14T05:04:19.073Z,0.67
2023-02-14T05:06:45.679Z,0.99
2023-02-14T05:09:12.343Z,1.13
2023-02-14T05:11:39.155Z,1.27
2023-02-14T05:14:05.736Z,0.86
2023-02-14T05:16:32.421Z,1.10
2023-02-14T05:18:58.950Z,1.03
2023-02-14T05:21:25.539Z,1.14
2023-02-14T05:23:52.211Z,1.12
2023-02-14T05:26:18.791Z,0.91
2023-02-14T05:28:45.401Z,1.10
2023-02-14T05:31:12.015Z,0.87
2023-02-14T05:33:38.483Z,0.43
2023-02-14T05:36:05.289Z,0.78
2023-02-14T05:38:32.259Z,0.92
2023-02-14T05:40:59.518Z,0.89
2023-02-14T05:43:26.281Z,0.80
2023-02-14T05:45:52.934Z,0.90
2023-02-14T05:48:19.937Z,0.84
2023-02-14T05:50:46.442Z,0.68
2023-02-14T05:53:15.927Z,0.69
2023-02-14T05:55:42.454Z,0.63
2023-02-14T05:58:09.073Z,0.55
2023-02-14T06:00:35.644Z,0.79
2023-02-14T06:03:02.191Z,0.83
2023-02-14T06:05:29.006Z,0.76
2023-02-14T06:07:55.687Z,0.75
2023-02-14T06:10:24.661Z,0.44
2023-02-14T06:12:53.145Z,0.72
2023-02-14T06:15:20.453Z,0.80
2023-02-14T06:17:55.494Z,0.77
2023-02-14T06:20:23.905Z,0.91
2023-02-14T06:22:51.342Z,0.94
2023-02-14T06:25:18.032Z,1.00
2023-02-14T06:27:44.576Z,0.90
2023-02-14T06:30:11.942Z,0.57
2023-02-14T06:32:38.625Z,0.66
2023-02-14T06:35:06.136Z,0.69
2023-02-14T06:37:32.987Z,1.13
2023-02-14T06:39:59.752Z,1.18
2023-02-14T06:42:26.503Z,1.29
2023-02-14T06:44:53.497Z,1.45
2023-02-14T06:47:19.978Z,1.37
2023-02-14T06:49:46.534Z,1.35
2023-02-14T06:52:13.161Z,1.52
2023-02-14T06:54:39.768Z,1.36
2023-02-14T06:57:06.376Z,1.28
2023-02-14T06:59:32.926Z,1.32
2023-02-14T07:01:59.558Z,1.33
2023-02-14T07:04:26.222Z,1.07
2023-02-14T07:06:52.735Z,1.17
2023-02-14T07:09:19.354Z,1.22
2023-02-14T07:11:46.342Z,1.26
2023-02-14T07:14:13.827Z,1.29
2023-02-14T07:16:40.611Z,0.96
2023-02-14T07:19:07.237Z,1.30
2023-02-14T07:21:33.839Z,1.34
2023-02-14T07:24:00.439Z,1.06
2023-02-14T07:26:27.068Z,1.30
2023-02-14T07:28:53.738Z,1.22
2023-02-14T07:31:20.434Z,1.38
2023-02-14T07:33:47.056Z,1.33
2023-02-14T07:36:13.715Z,1.38
2023-02-14T07:38:40.468Z,1.49
2023-02-14T07:41:07.130Z,1.37
2023-02-14T07:43:33.747Z,1.60
2023-02-14T07:46:01.949Z,1.45
2023-02-14T07:48:31.052Z,1.73
2023-02-14T07:50:59.466Z,1.78
2023-02-14T07:53:26.227Z,1.81
2023-02-14T07:55:53.262Z,1.64
2023-02-14T07:58:19.892Z,1.91
2023-02-14T08:00:46.674Z,1.97
2023-02-14T08:03:14.177Z,2.08
2023-02-14T08:05:41.251Z,2.17
2023-02-14T08:08:08.043Z,2.03
2023-02-14T08:10:34.761Z,2.31
2023-02-14T08:13:01.297Z,2.32
2023-02-14T08:15:34.322Z,2.42
2023-02-14T08:18:00.961Z,2.45
2023-02-14T08:20:27.636Z,2.33
2023-02-14T08:22:54.279Z,2.61
2023-02-14T08:25:20.769Z,2.65
2023-02-14T08:27:47.422Z,2.60
2023-02-14T08:30:14.813Z,2.69
2023-02-14T08:32:41.579Z,2.93
2023-02-14T08:35:08.602Z,2.91
2023-02-14T08:37:35.301Z,3.02
2023-02-14T08:40:01.877Z,3.19
2023-02-14T08:42:28.480Z,3.07
2023-02-14T08:44:55.050Z,3.25
2023-02-14T08:47:21.680Z,3.44
2023-02-14T08:49:48.278Z,3.38
2023-02-14T08:52:14.855Z,3.55
2023-02-14T08:54:41.400Z,3.69
2023-02-14T08:57:08.008Z,3.78
2023-02-14T08:59:34.738Z,3.67
2023-02-14T09:02:01.428Z,4.06
2023-02-14T09:04:27.938Z,3.85
2023-02-14T09:06:54.575Z,4.06
2023-02-14T09:09:21.088Z,4.09
2023-02-14T09:11:48.887Z,4.23
2023-02-14T09:14:16.103Z,4.32
2023-02-14T09:16:42.586Z,4.49
2023-02-14T09:19:09.256Z,4.54
2023-02-14T09:21:35.936Z,4.63
2023-02-14T09:24:02.529Z,4.71
2023-02-14T09:26:29.201Z,4.86
2023-02-14T09:28:57.039Z,5.11
2023-02-14T09:31:25.346Z,5.90
2023-02-14T09:33:52.428Z,6.62
2023-02-14T09:36:19.017Z,7.06
2023-02-14T09:38:46.091Z,7.87
2023-02-14T09:41:31.263Z,7.38
2023-02-14T09:44:26.564Z,7.51
2023-02-14T09:46:56.392Z,7.67
2023-02-14T09:49:35.998Z,8.23
2023-02-14T09:52:06.344Z,8.16
2023-02-14T09:54:35.397Z,9.11
2023-02-14T09:57:15.693Z,8.91
2023-02-14T10:00:10.848Z,8.88
2023-02-14T10:02:56.648Z,9.16
2023-02-14T10:05:28.335Z,9.44
2023-02-14T10:08:19.616Z,9.76
2023-02-14T10:11:00.496Z,9.75
2023-02-14T10:13:41.972Z,10.22
2023-02-14T10:16:26.771Z,10.10
2023-02-14T10:19:03.967Z,10.58
2023-02-14T10:21:42.470Z,9.87
2023-02-14T10:24:57.508Z,10.06
2023-02-14T10:27:41.055Z,9.83
2023-02-14T10:30:15.611Z,9.85
2023-02-14T10:32:51.262Z,9.45
2023-02-14T10:35:47.351Z,10.24
2023-02-14T10:38:27.787Z,10.30
2023-02-14T10:41:18.703Z,10.27
2023-02-14T10:44:00.131Z,10.47
2023-02-14T10:46:50.891Z,10.21
2023-02-14T10:49:42.125Z,10.04
2023-02-14T10:52:18.929Z,10.81
2023-02-14T10:55:01.358Z,10.22
2023-02-14T10:57:32.710Z,10.02
2023-02-14T11:00:09.004Z,10.64
2023-02-14T11:02:43.885Z,10.78
2023-02-14T11:05:39.266Z,12.07
2023-02-14T11:08:17.872Z,12.07
2023-02-14T11:10:45.792Z,10.58
2023-02-14T11:13:28.769Z,10.02
2023-02-14T11:16:00.359Z,11.36
2023-02-14T11:18:28.586Z,11.13
2023-02-14T11:21:02.012Z,10.91
2023-02-14T11:23:33.859Z,11.41
2023-02-14T11:26:02.570Z,12.24
2023-02-14T11:28:29.413Z,11.63
2023-02-14T11:30:56.279Z,12.26
2023-02-14T11:33:39.958Z,10.54
2023-02-14T11:36:13.768Z,10.96
2023-02-14T11:38:42.061Z,10.60
2023-02-14T11:41:13.329Z,10.29
2023-02-14T11:43:42.408Z,9.76
2023-02-14T11:46:15.067Z,10.61
2023-02-14T11:49:05.468Z,10.72
2023-02-14T11:51:39.087Z,11.88
2023-02-14T11:54:06.100Z,10.90
2023-02-14T11:56:49.749Z,10.72
2023-02-14T11:59:37.232Z,10.52
2023-02-14T12:02:47.526Z,10.64
2023-02-14T12:05:23.777Z,10.58
2023-02-14T12:07:57.107Z,10.90
2023-02-14T12:10:31.821Z,11.11
2023-02-14T12:12:59.833Z,10.97
2023-02-14T12:15:37.096Z,11.24
2023-02-14T12:18:12.878Z,11.32
2023-02-14T12:20:53.843Z,11.52
2023-02-14T12:23:26.459Z,12.20
2023-02-14T12:26:01.407Z,12.37
2023-02-14T12:29:00.585Z,12.06
2023-02-14T12:31:27.377Z,12.13
2023-02-14T12:33:54.095Z,12.22
2023-02-14T12:36:45.421Z,12.33
2023-02-14T12:39:33.290Z,12.61
2023-02-14T12:42:02.634Z,12.33
2023-02-14T12:45:02.592Z,12.64
2023-02-14T12:47:44.389Z,12.89
2023-02-14T12:50:28.094Z,11.99
2023-02-14T12:53:30.194Z,12.45
2023-02-14T12:56:02.558Z,12.89
2023-02-14T12:58:40.560Z,13.23
2023-02-14T13:01:13.234Z,12.92
2023-02-14T13:04:24.518Z,13.24
2023-02-14T13:07:01.611Z,12.91
2023-02-14T13:09:39.920Z,12.99
2023-02-14T13:12:27.724Z,12.50
2023-02-14T13:15:15.398Z,12.73
2023-02-14T13:17:55.163Z,12.77
2023-02-14T13:20:30.964Z,12.88
2023-02-14T13:23:02.964Z,12.92
2023-02-14T13:25:39.134Z,13.04
2023-02-14T13:28:11.974Z,14.27
2023-02-14T13:30:39.045Z,15.18
2023-02-14T13:33:27.251Z,14.34
2023-02-14T13:36:00.707Z,13.72
2023-02-14T13:38:29.299Z,14.42
2023-02-14T13:40:57.514Z,14.30
2023-02-14T13:43:46.143Z,14.89
2023-02-14T13:46:18.710Z,14.17
2023-02-14T13:48:57.358Z,14.25
2023-02-14T13:51:47.204Z,14.66
2023-02-14T13:54:32.716Z,14.03
2023-02-14T13:57:21.914Z,14.18
2023-02-14T14:00:17.415Z,13.86
2023-02-14T14:02:55.516Z,13.95
2023-02-14T14:05:30.945Z,13.91
2023-02-14T14:08:22.193Z,14.70
2023-02-14T14:10:57.938Z,13.25
2023-02-14T14:13:42.561Z,14.35
2023-02-14T14:16:24.607Z,14.16
2023-02-14T14:18:54.079Z,14.65
2023-02-14T14:21:45.049Z,15.44
2023-02-14T14:24:17.577Z,14.32
2023-02-14T14:26:47.483Z,13.14
2023-02-14T14:29:22.542Z,13.99
2023-02-14T14:31:49.708Z,14.64
2023-02-14T14:34:19.698Z,13.70
2023-02-14T14:36:46.743Z,13.68
2023-02-14T14:39:26.827Z,14.12
2023-02-14T14:41:53.759Z,13.71
2023-02-14T14:44:20.699Z,14.82
2023-02-14T14:46:47.469Z,13.85
2023-02-14T14:49:16.908Z,13.73
2023-02-14T14:51:43.690Z,14.01
2023-02-14T14:54:18.631Z,13.50
2023-02-14T14:56:55.924Z,13.50
2023-02-14T14:59:22.397Z,14.45
2023-02-14T15:01:49.553Z,13.11
2023-02-14T15:04:16.217Z,13.00
2023-02-14T15:06:43.053Z,12.64
2023-02-14T15:09:29.667Z,12.68
2023-02-14T15:11:58.516Z,12.64
2023-02-14T15:14:28.806Z,12.71
2023-02-14T15:17:00.364Z,12.21
2023-02-14T15:19:47.993Z,11.92
2023-02-14T15:22:21.503Z,12.52
2023-02-14T15:24:48.710Z,12.61
2023-02-14T15:27:17.971Z,12.41
2023-02-14T15:30:06.530Z,12.74
2023-02-14T15:32:35.103Z,12.70
2023-02-14T15:35:04.857Z,13.07
2023-02-14T15:37:32.446Z,12.30
2023-02-14T15:39:59.430Z,12.60
2023-02-14T15:42:28.525Z,12.81
2023-02-14T15:45:23.415Z,12.38
2023-02-14T15:48:03.076Z,12.03
2023-02-14T15:50:31.599Z,12.13
2023-02-14T15:53:08.918Z,12.66
2023-02-14T15:55:38.941Z,12.49
2023-02-14T15:58:12.087Z,12.53
2023-02-14T16:00:38.688Z,12.52
2023-02-14T16:03:10.771Z,12.30
2023-02-14T16:05:37.703Z,12.14
2023-02-14T16:08:07.658Z,11.64
2023-02-14T16:10:39.622Z,11.79
2023-02-14T16:13:19.403Z,11.70
2023-02-14T16:16:06.116Z,11.89
2023-02-14T16:18:42.006Z,11.52
2023-02-14T16:21:25.947Z,11.15
2023-02-14T16:24:07.726Z,11.06
2023-02-14T16:26:36.367Z,11.05
2023-02-14T16:29:04.938Z,11.24
2023-02-14T16:31:32.779Z,11.18
2023-02-14T16:33:59.912Z,11.32
2023-02-14T16:36:29.172Z,11.13
2023-02-14T16:38:56.893Z,11.05
2023-02-14T16:41:26.050Z,10.52
2023-02-14T16:43:53.641Z,10.77
2023-02-14T16:46:23.570Z,10.08
2023-02-14T16:48:50.319Z,10.22
2023-02-14T16:51:16.776Z,9.94
2023-02-14T16:53:43.674Z,9.87
2023-02-14T16:56:20.116Z,9.73
2023-02-14T16:58:47.591Z,9.98
2023-02-14T17:01:14.403Z,9.92
2023-02-14T17:03:40.938Z,9.89
2023-02-14T17:06:07.875Z,9.91
2023-02-14T17:08:35.083Z,9.50
2023-02-14T17:11:02.292Z,9.12
2023-02-14T17:13:33.950Z,9.25
2023-02-14T17:16:01.294Z,8.89
2023-02-14T17:18:30.601Z,9.05
2023-02-14T17:20:58.996Z,9.11
2023-02-14T17:23:25.905Z,8.61
2023-02-14T17:25:53.052Z,8.40
2023-02-14T17:28:19.709Z,7.83
2023-02-14T17:30:46.401Z,8.17
2023-02-14T17:33:13.125Z,8.11
2023-02-14T17:35:39.778Z,8.57
2023-02-14T17:38:06.442Z,8.54
2023-02-14T17:40:32.939Z,8.83
2023-02-14T17:43:00.404Z,8.76
2023-02-14T17:45:27.066Z,8.65
2023-02-14T17:47:54.090Z,8.53
2023-02-14T17:50:20.886Z,8.36
2023-02-14T17:52:47.694Z,8.30
2023-02-14T17:55:14.359Z,8.24
2023-02-14T17:57:40.917Z,8.14
2023-02-14T18:00:09.641Z,7.81
2023-02-14T18:02:37.899Z,7.39
2023-02-14T18:05:04.716Z,7.61
2023-02-14T18:07:31.373Z,7.81
2023-02-14T18:09:57.795Z,7.83
2023-02-14T18:12:24.518Z,7.42
2023-02-14T18:14:51.352Z,7.72
2023-02-14T18:17:17.786Z,7.56
2023-02-14T18:19:44.256Z,7.45
2023-02-14T18:22:10.870Z,7.30
2023-02-14T18:24:37.402Z,7.12
2023-02-14T18:27:04.030Z,6.48
2023-02-14T18:29:30.656Z,7.03
2023-02-14T18:31:57.546Z,7.30
2023-02-14T18:34:24.233Z,7.33
2023-02-14T18:36:50.912Z,7.09
2023-02-14T18:39:17.457Z,6.69
2023-02-14T18:41:44.048Z,6.80
2023-02-14T18:44:10.649Z,6.79
2023-02-14T18:46:37.532Z,6.84
2023-02-14T18:49:05.996Z,6.97
2023-02-14T18:51:38.452Z,6.82
2023-02-14T18:54:06.202Z,6.48
2023-02-14T18:56:35.694Z,7.03
2023-02-14T18:59:06.436Z,7.03
2023-02-14T19:01:36.248Z,6.27
2023-02-14T19:04:04.438Z,5.70
2023-02-14T19:06:31.572Z,6.23
2023-02-14T19:08:58.431Z,6.39
2023-02-14T19:11:27.961Z,6.28
2023-02-14T19:13:56.753Z,6.49
2023-02-14T19:16:26.528Z,6.60
2023-02-14T19:18:53.513Z,6.60
2023-02-14T19:21:23.082Z,6.10
2023-02-14T19:23:51.914Z,6.02
2023-02-14T19:26:21.393Z,5.86
2023-02-14T19:28:50.432Z,6.14
2023-02-14T19:31:17.459Z,6.12
2023-02-14T19:33:46.414Z,5.87
2023-02-14T19:36:15.545Z,5.53
2023-02-14T19:38:43.635Z,5.29
2023-02-14T19:41:30.669Z,5.27
2023-02-14T19:44:02.089Z,5.19
2023-02-14T19:46:32.249Z,5.17
2023-02-14T19:48:59.973Z,5.40
2023-02-14T19:51:29.366Z,4.85
2023-02-14T19:53:57.805Z,5.24
2023-02-14T19:56:27.605Z,5.39
2023-02-14T19:58:54.528Z,5.22
2023-02-14T20:01:35.886Z,5.17
2023-02-14T20:04:03.918Z,4.89
2023-02-14T20:06:30.849Z,4.59
2023-02-14T20:09:00.226Z,4.52
2023-02-14T20:11:42.513Z,5.04
2023-02-14T20:14:09.441Z,5.14
2023-02-14T20:16:37.091Z,4.88
2023-02-14T20:19:09.233Z,4.86
2023-02-14T20:21:35.774Z,4.89
2023-02-14T20:24:03.685Z,4.74
2023-02-14T20:26:32.263Z,4.46
2023-02-14T20:28:59.946Z,4.38
2023-02-14T20:31:26.797Z,4.18
2023-02-14T20:33:53.482Z,4.53
2023-02-14T20:36:20.236Z,4.81
2023-02-14T20:38:47.329Z,4.81
2023-02-14T20:41:15.388Z,4.92
2023-02-14T20:43:42.357Z,4.96
2023-02-14T20:46:09.025Z,4.82
2023-02-14T20:48:35.696Z,4.95
2023-02-14T20:51:13.488Z,5.12
2023-02-14T20:53:40.941Z,4.88
2023-02-14T20:56:08.038Z,4.66
2023-02-14T20:58:36.037Z,4.26
2023-02-14T21:01:09.595Z,3.77
2023-02-14T21:03:36.417Z,4.30
2023-02-14T21:06:04.826Z,4.32
2023-02-14T21:08:31.403Z,4.01
2023-02-14T21:10:58.148Z,4.10
2023-02-14T21:13:25.300Z,4.30
2023-02-14T21:15:51.832Z,4.27
2023-02-14T21:18:18.664Z,4.09
2023-02-14T21:20:45.215Z,3.80
2023-02-14T21:23:12.348Z,4.18
2023-02-14T21:25:39.727Z,3.61
2023-02-14T21:28:06.201Z,3.89
2023-02-14T21:30:32.702Z,4.01
2023-02-14T21:32:59.232Z,4.22
2023-02-14T21:35:25.854Z,4.12
2023-02-14T21:37:52.419Z,4.20
2023-02-14T21:40:18.903Z,4.10
2023-02-14T21:42:45.533Z,4.17
2023-02-14T21:45:13.252Z,3.68
2023-02-14T21:47:39.834Z,3.73
2023-02-14T21:50:08.274Z,3.65
2023-02-14T21:52:34.889Z,3.55
2023-02-14T21:55:01.443Z,3.60
2023-02-14T21:57:29.596Z,3.93
2023-02-14T21:59:56.227Z,3.58
2023-02-14T22:02:22.688Z,3.45
2023-02-14T22:04:49.394Z,3.51
2023-02-14T22:07:15.924Z,3.87
2023-02-14T22:09:42.482Z,3.83
2023-02-14T22:12:09.031Z,3.42
2023-02-14T22:14:35.599Z,3.44
2023-02-14T22:17:02.135Z,3.73
2023-02-14T22:19:28.790Z,3.85
2023-02-14T22:21:55.413Z,3.87
2023-02-14T22:24:21.857Z,3.66
2023-02-14T22:26:48.414Z,2.93
2023-02-14T22:29:14.932Z,3.04
2023-02-14T22:31:43.327Z,2.91
2023-02-14T22:34:12.471Z,3.34
2023-02-14T22:36:39.152Z,3.50
2023-02-14T22:39:06.583Z,3.50
2023-02-14T22:41:33.317Z,3.22
2023-02-14T22:43:59.960Z,3.17
2023-02-14T22:46:28.333Z,3.05
2023-02-14T22:48:56.460Z,3.21
2023-02-14T22:51:28.650Z,3.14
2023-02-14T22:53:57.511Z,3.05
2023-02-14T22:56:27.415Z,3.12
2023-02-14T22:58:59.377Z,2.93
2023-02-14T23:01:26.639Z,3.02
2023-02-14T23:03:55.380Z,3.04
2023-02-14T23:06:22.453Z,2.89
2023-02-14T23:08:49.485Z,2.58
2023-02-14T23:11:18.984Z,2.30
2023-02-14T23:13:45.887Z,2.47
2023-02-14T23:16:12.345Z,2.58
2023-02-14T23:18:38.988Z,2.87
2023-02-14T23:21:13.782Z,2.71
2023-02-14T23:23:40.271Z,2.84
2023-02-14T23:26:06.776Z,2.26
2023-02-14T23:28:33.353Z,2.46
2023-02-14T23:31:01.269Z,2.16
2023-02-14T23:33:27.800Z,2.17
2023-02-14T23:35:54.448Z,2.29
2023-02-14T23:38:21.008Z,2.38
2023-02-14T23:40:47.483Z,1.91
2023-02-14T23:43:14.035Z,2.21
2023-02-14T23:45:40.558Z,2.24
2023-02-14T23:48:07.867Z,2.15
2023-02-14T23:50:35.143Z,2.04
2023-02-14T23:53:01.711Z,2.04
2023-02-14T23:55:28.185Z,2.12
2023-02-14T23:57:54.871Z,2.14
